AYNZ/LAE METAR and TAF weather

Enter ICAO airport designator
Station Type Date Time Source
AYNZ METAR 2020/08/05 08:00 UTC NOAA

AYNZ 050800Z 04011KT 9999 SCT030 BKN070 26/21 Q1008=


Station Type Date Time Source
AYNZ Decoded METAR 2020/08/05 08:00 UTC NOAA

Station name not available
Aug 05, 2020 - 04:00 AM EDT / 2020.08.05 0800 UTC
Wind: from the NE (040 degrees) at 13 MPH (11 KT):0
Visibility: greater than 7 mile(s):0
Sky conditions: mostly cloudy
Temperature: 78 F (26 C)
Dew Point: 69 F (21 C)
Relative Humidity: 73%
Pressure (altimeter): 29.77 in. Hg (1008 hPa)
ob: AYNZ 050800Z 04011KT 9999 SCT030 BKN070 26/21 Q1008=
cycle: 8

Station Type Date Time Source
AYNZ TAF 2015/08/19 08:15 UTC NOAA

TAF AYNZ 190550Z 1908/1920 09015KT 9999 SCT020 SCT120
FM191400 VRB03KT 9999 BKN040 Q 1011 1014 1013 1010

Example: see airport list